Time;durP1;ratioP1;P1;durP2;ratioP2;P2;SDS_P1;SDS_P2;PMS_P1;PMS_P2;Temp;Humidity;BMP_temperature;BMP_pressure;BME280_temperature;BME280_humidity;BME280_pressure;Samples;Min_cycle;Max_cycle;Signal;HPM_P1;HPM_P2
2023/08/12 00:00:19;;;;;;;109.82;103.22;;;18.50;99.90;;;;;;6194813;23;20050;-87
2023/08/12 00:02:45;;;;;;;124.93;117.53;;;18.60;99.90;;;;;;6194515;23;20087;-86
2023/08/12 00:05:12;;;;;;;290.48;269.38;;;18.60;99.90;;;;;;6219064;23;20022;-86
2023/08/12 00:07:41;;;;;;;362.92;337.27;;;18.50;99.90;;;;;;6219246;23;20360;-86
2023/08/12 00:10:08;;;;;;;396.55;369.17;;;18.50;99.90;;;;;;6218962;23;20351;-86
2023/08/12 00:12:37;;;;;;;184.27;173.85;;;18.50;99.90;;;;;;6193764;23;20347;-86
2023/08/12 00:15:06;;;;;;;179.68;169.38;;;18.50;99.90;;;;;;6218722;23;20031;-86
2023/08/12 00:17:32;;;;;;;453.95;423.33;;;18.50;99.90;;;;;;6219159;23;20074;-86
2023/08/12 00:19:58;;;;;;;186.55;176.32;;;18.50;99.90;;;;;;6193832;23;20031;-86
2023/08/12 00:22:24;;;;;;;326.08;302.55;;;18.50;99.90;;;;;;6193781;23;20020;-86
2023/08/12 00:24:50;;;;;;;355.98;331.00;;;18.50;99.90;;;;;;6194009;23;20145;-86
2023/08/12 00:27:17;;;;;;;195.15;184.52;;;18.50;99.90;;;;;;6218638;23;20022;-86
2023/08/12 00:29:42;;;;;;;397.63;370.15;;;18.50;99.90;;;;;;6245738;23;20468;-87
2023/08/12 00:32:09;;;;;;;433.02;403.75;;;18.50;99.90;;;;;;6245689;23;20016;-86
2023/08/12 00:34:35;;;;;;;249.32;236.38;;;18.60;99.90;;;;;;6218876;23;20017;-86
2023/08/12 00:37:00;;;;;;;450.63;420.08;;;18.60;99.90;;;;;;6219280;23;20023;-86
2023/08/12 00:39:26;;;;;;;231.63;218.98;;;18.60;99.90;;;;;;6193574;23;20070;-86
2023/08/12 00:41:52;;;;;;;226.13;214.02;;;18.60;99.90;;;;;;6245717;23;20012;-87
2023/08/12 00:44:18;;;;;;;464.77;433.40;;;18.60;99.90;;;;;;6218762;23;20024;-87
2023/08/12 00:46:44;;;;;;;286.00;271.10;;;18.60;99.90;;;;;;6219123;23;20008;-87
2023/08/12 00:49:11;;;;;;;280.20;266.08;;;18.60;99.90;;;;;;6193974;23;20051;-87
2023/08/12 00:51:41;;;;;;;485.25;452.80;;;18.60;99.90;;;;;;6218494;23;20335;-87
2023/08/12 00:54:12;;;;;;;286.10;271.60;;;18.60;99.90;;;;;;6245596;23;20427;-86
2023/08/12 00:56:38;;;;;;;288.77;274.33;;;18.60;99.90;;;;;;6218520;23;20105;-87
2023/08/12 00:59:06;;;;;;;275.63;261.45;;;18.60;99.90;;;;;;6245330;23;20008;-86
2023/08/12 01:01:32;;;;;;;266.95;253.13;;;18.50;99.90;;;;;;6245269;23;20020;-86
2023/08/12 01:03:58;;;;;;;560.30;523.45;;;18.40;99.90;;;;;;6218392;23;20008;-86
2023/08/12 01:06:24;;;;;;;617.20;576.25;;;18.50;99.90;;;;;;6245949;23;20012;-87
2023/08/12 01:08:50;;;;;;;341.88;324.65;;;18.60;99.90;;;;;;6218837;23;20023;-87
2023/08/12 01:11:23;;;;;;;628.70;587.17;;;18.60;99.90;;;;;;6218374;23;20462;-87
2023/08/12 01:14:23;;;;;;;402.77;380.80;;;18.60;99.90;;;;;;6219005;23;20470;-88
2023/08/12 01:16:52;;;;;;;441.98;414.20;;;18.60;99.90;;;;;;6193926;23;20016;-87
2023/08/12 01:19:34;;;;;;;699.08;652.25;;;18.60;99.90;;;;;;6245554;23;20158;-86
2023/08/12 01:22:01;;;;;;;737.05;687.08;;;18.60;99.90;;;;;;6218502;23;20341;-86
2023/08/12 01:24:34;;;;;;;774.88;720.08;;;18.60;99.90;;;;;;6218005;23;20091;-87
2023/08/12 01:27:00;;;;;;;781.85;726.20;;;18.60;99.90;;;;;;6218296;23;20350;-87
2023/08/12 01:29:26;;;;;;;791.15;732.92;;;18.60;99.90;;;;;;6245118;23;20051;-87
2023/08/12 01:31:58;;;;;;;429.15;402.98;;;18.60;99.90;;;;;;6218116;23;20026;-87
2023/08/12 01:34:40;;;;;;;778.25;722.75;;;18.60;99.90;;;;;;6218433;23;20374;-87
2023/08/12 01:37:10;;;;;;;731.22;680.97;;;18.60;99.90;;;;;;6218480;23;20082;-86
2023/08/12 01:39:38;;;;;;;768.47;714.50;;;18.60;99.90;;;;;;6218696;23;20035;-87
2023/08/12 01:42:04;;;;;;;489.42;452.92;;;18.60;99.90;;;;;;6218206;23;20016;-86
2023/08/12 01:44:30;;;;;;;473.52;441.02;;;18.60;99.90;;;;;;6218670;23;20016;-87
2023/08/12 01:46:56;;;;;;;464.15;431.98;;;18.60;99.90;;;;;;6218335;23;20016;-87
2023/08/12 01:49:23;;;;;;;535.88;484.73;;;18.50;99.90;;;;;;6193777;23;20062;-87
2023/08/12 01:51:48;;;;;;;764.65;710.83;;;18.50;99.90;;;;;;6193439;23;20382;-87
2023/08/12 01:54:14;;;;;;;789.70;730.83;;;18.50;99.90;;;;;;6245934;23;20019;-87
2023/08/12 01:56:40;;;;;;;515.53;470.42;;;18.40;99.90;;;;;;6218051;23;20095;-86
2023/08/12 01:59:06;;;;;;;489.90;452.77;;;18.40;99.90;;;;;;6245404;23;20014;-87
2023/08/12 02:01:31;;;;;;;475.50;442.20;;;18.30;99.90;;;;;;6217981;23;20385;-86
2023/08/12 02:03:57;;;;;;;468.42;435.30;;;18.30;99.90;;;;;;6218129;23;20024;-86
2023/08/12 02:06:23;;;;;;;794.50;731.80;;;18.30;99.90;;;;;;6193315;23;20035;-87
2023/08/12 02:08:48;;;;;;;808.97;743.28;;;18.20;99.90;;;;;;6218508;23;20024;-87
2023/08/12 02:11:14;;;;;;;545.20;491.55;;;18.20;99.90;;;;;;6218545;23;20026;-87
2023/08/12 02:13:40;;;;;;;843.65;763.67;;;18.10;99.90;;;;;;6218164;23;20438;-86
2023/08/12 02:16:05;;;;;;;544.25;488.35;;;18.10;99.90;;;;;;6219728;23;20016;-87
2023/08/12 02:18:31;;;;;;;532.85;480.55;;;18.10;99.90;;;;;;6247355;23;20095;-86
2023/08/12 02:20:57;;;;;;;840.08;762.10;;;18.10;99.90;;;;;;6247317;23;20061;-87
2023/08/12 02:23:23;;;;;;;838.05;758.63;;;18.10;99.90;;;;;;6220302;23;20066;-87
2023/08/12 02:25:48;;;;;;;539.47;467.33;;;18.10;99.90;;;;;;6219932;23;20024;-87
2023/08/12 02:28:14;;;;;;;817.70;749.05;;;18.00;99.90;;;;;;6246481;23;20023;-87
2023/08/12 02:30:42;;;;;;;526.42;476.55;;;18.00;99.90;;;;;;6219774;23;20066;-87
2023/08/12 02:33:08;;;;;;;541.80;487.77;;;17.90;99.90;;;;;;6247383;23;20083;-86
2023/08/12 02:35:34;;;;;;;835.58;753.50;;;17.90;99.90;;;;;;6195367;23;20347;-86
2023/08/12 02:38:00;;;;;;;600.22;497.70;;;17.90;99.90;;;;;;6220376;23;20016;-86
2023/08/12 02:40:25;;;;;;;832.85;748.30;;;17.80;99.90;;;;;;6219838;23;20020;-86
2023/08/12 02:42:51;;;;;;;834.92;751.65;;;17.80;99.90;;;;;;6247089;23;20020;-86
2023/08/12 02:45:17;;;;;;;555.33;492.05;;;17.70;99.90;;;;;;6219599;23;20397;-87
2023/08/12 02:47:42;;;;;;;570.17;486.83;;;17.70;99.90;;;;;;6246926;23;20047;-87
2023/08/12 02:50:08;;;;;;;2.00;0.60;;;17.70;99.90;;;;;;6246598;23;20016;-86
2023/08/12 02:52:35;;;;;;;0.95;0.60;;;17.60;99.90;;;;;;6220479;23;20054;-87
2023/08/12 02:55:01;;;;;;;1.10;0.60;;;17.60;99.90;;;;;;6247766;23;20027;-87
2023/08/12 02:57:26;;;;;;;1.58;0.68;;;17.60;99.90;;;;;;6246447;23;20012;-86
2023/08/12 02:59:52;;;;;;;1.42;0.55;;;17.60;99.90;;;;;;6246967;23;20096;-86
2023/08/12 03:02:18;;;;;;;1.48;0.52;;;17.60;99.90;;;;;;6246878;23;20498;-87
2023/08/12 03:04:43;;;;;;;0.95;0.50;;;17.60;99.90;;;;;;6246572;23;20092;-86
2023/08/12 03:07:09;;;;;;;1.20;0.60;;;17.60;99.90;;;;;;6219444;23;20020;-87
2023/08/12 03:09:35;;;;;;;1.98;0.70;;;17.50;99.90;;;;;;6220109;23;20012;-87
2023/08/12 03:12:04;;;;;;;0.80;0.57;;;17.50;99.90;;;;;;6246911;23;20038;-87
2023/08/12 03:14:30;;;;;;;2.53;0.60;;;17.50;99.90;;;;;;6247358;23;20365;-86
2023/08/12 03:16:56;;;;;;;1.25;0.60;;;17.50;99.90;;;;;;6219249;23;20024;-87
2023/08/12 03:19:21;;;;;;;1.95;0.75;;;17.50;99.90;;;;;;6246567;23;20492;-87
2023/08/12 03:21:47;;;;;;;2.80;0.80;;;17.50;99.90;;;;;;6219101;23;20386;-87
2023/08/12 03:24:13;;;;;;;2.33;0.80;;;17.40;99.90;;;;;;6246842;23;20012;-87
2023/08/12 03:26:38;;;;;;;1.23;0.80;;;17.40;99.90;;;;;;6245921;23;20086;-87
2023/08/12 03:29:04;;;;;;;2.63;0.70;;;17.40;99.90;;;;;;6246923;23;20079;-87
2023/08/12 03:31:30;;;;;;;1.10;0.60;;;17.40;99.90;;;;;;6220000;23;20012;-88
2023/08/12 03:33:56;;;;;;;1.73;0.80;;;17.40;99.90;;;;;;6194472;23;20019;-87
2023/08/12 03:36:21;;;;;;;2.95;0.73;;;17.40;99.90;;;;;;6219262;23;20098;-87
2023/08/12 03:38:47;;;;;;;1.83;0.80;;;17.40;99.90;;;;;;6219055;23;20026;-87
2023/08/12 03:41:13;;;;;;;2.50;0.80;;;17.40;99.90;;;;;;6246232;23;20016;-87
2023/08/12 03:43:38;;;;;;;1.83;0.88;;;17.40;99.90;;;;;;6245765;23;20026;-88
2023/08/12 03:46:05;;;;;;;1.70;0.80;;;17.40;99.90;;;;;;6219210;23;20020;-87
2023/08/12 03:48:31;;;;;;;0.65;0.50;;;17.40;99.90;;;;;;6219168;23;20347;-88
2023/08/12 03:50:57;;;;;;;1.40;1.00;;;17.40;99.90;;;;;;6246083;23;20334;-87
2023/08/12 03:53:23;;;;;;;2.50;0.60;;;17.40;99.90;;;;;;6218749;23;20023;-87
2023/08/12 03:55:48;;;;;;;2.47;0.80;;;17.40;99.90;;;;;;6218744;23;20027;-87
2023/08/12 03:58:14;;;;;;;1.35;1.10;;;17.40;99.90;;;;;;6218417;23;20074;-87
2023/08/12 04:00:43;;;;;;;1.15;0.77;;;17.40;99.90;;;;;;6193644;23;20016;-87
2023/08/12 04:03:09;;;;;;;1.10;0.60;;;17.40;99.90;;;;;;6245928;23;20024;-86
2023/08/12 04:05:34;;;;;;;2.00;0.80;;;17.40;99.90;;;;;;6218952;23;20057;-87
2023/08/12 04:08:00;;;;;;;3.42;1.00;;;17.40;99.90;;;;;;6246469;23;20326;-88
2023/08/12 04:10:26;;;;;;;1.13;0.63;;;17.40;99.90;;;;;;6218820;23;20021;-88
2023/08/12 04:12:52;;;;;;;0.80;0.60;;;17.40;99.90;;;;;;6219009;23;20024;-87
2023/08/12 04:15:17;;;;;;;4.05;0.70;;;17.40;99.90;;;;;;6246305;23;20016;-87
2023/08/12 04:17:44;;;;;;;1.60;0.65;;;17.50;99.90;;;;;;6193783;23;20039;-88
2023/08/12 04:20:10;;;;;;;1.10;0.75;;;17.50;99.90;;;;;;6219728;23;20016;-88
2023/08/12 04:22:36;;;;;;;3.65;1.00;;;17.50;99.90;;;;;;6219005;23;20020;-87
2023/08/12 04:25:02;;;;;;;0.88;0.68;;;17.50;99.90;;;;;;6246179;23;20008;-88
2023/08/12 04:27:28;;;;;;;1.30;0.70;;;17.50;99.90;;;;;;6245804;23;20012;-89
2023/08/12 04:29:54;;;;;;;1.88;0.60;;;17.60;99.90;;;;;;6193983;23;20043;-87
2023/08/12 04:32:19;;;;;;;1.45;0.60;;;17.60;99.90;;;;;;6219402;23;20016;-87
2023/08/12 04:34:46;;;;;;;1.20;0.70;;;17.60;99.90;;;;;;6219053;23;20023;-88
2023/08/12 04:37:12;;;;;;;1.27;0.80;;;17.70;99.90;;;;;;6193499;23;20473;-89
2023/08/12 04:39:37;;;;;;;1.60;0.70;;;17.70;99.90;;;;;;6218123;23;20020;-88
2023/08/12 04:42:03;;;;;;;2.65;0.90;;;17.80;99.90;;;;;;6218490;23;20027;-88
2023/08/12 04:44:29;;;;;;;1.30;0.70;;;17.80;99.90;;;;;;6218548;23;20446;-87
2023/08/12 04:57:42;;;;;;;1.95;0.65;;;17.90;99.90;;;;;;6245613;23;20027;-87
2023/08/12 05:00:08;;;;;;;2.60;1.08;;;18.00;99.90;;;;;;6245420;23;20016;-87
2023/08/12 05:02:34;;;;;;;2.00;1.00;;;18.00;99.90;;;;;;6245387;23;20130;-87
2023/08/12 05:05:00;;;;;;;1.75;0.70;;;18.00;99.90;;;;;;6245972;23;20429;-87
2023/08/12 05:07:26;;;;;;;1.95;1.10;;;18.00;99.90;;;;;;6245222;23;20020;-87
2023/08/12 05:09:52;;;;;;;2.08;0.80;;;18.10;99.90;;;;;;6219125;23;20419;-88
2023/08/12 05:12:18;;;;;;;498.42;447.10;;;18.10;99.90;;;;;;6218670;23;20056;-88
2023/08/12 05:14:44;;;;;;;253.20;239.05;;;18.10;99.90;;;;;;6218412;23;20020;-87
2023/08/12 05:17:10;;;;;;;501.50;450.33;;;18.10;99.90;;;;;;6218356;23;20028;-87
2023/08/12 05:19:36;;;;;;;1.35;0.80;;;18.20;99.90;;;;;;6218498;23;20112;-87
2023/08/12 05:22:02;;;;;;;1.45;0.82;;;18.30;99.90;;;;;;6218708;23;20012;-87
2023/08/12 05:24:27;;;;;;;3.08;0.90;;;18.30;99.90;;;;;;6246422;23;20016;-85
2023/08/12 05:26:53;;;;;;;2.45;0.80;;;18.40;99.90;;;;;;6245903;22;20092;-86
2023/08/12 05:29:19;;;;;;;1.83;1.13;;;18.40;99.90;;;;;;6218727;23;20016;-88
2023/08/12 05:31:45;;;;;;;2.10;0.90;;;18.50;99.90;;;;;;6218396;23;20019;-87
2023/08/12 05:34:10;;;;;;;1.42;0.82;;;18.60;99.90;;;;;;6218585;23;20024;-87
2023/08/12 05:36:36;;;;;;;1.05;0.60;;;18.60;99.90;;;;;;6218723;23;20048;-87
2023/08/12 05:39:03;;;;;;;1.13;0.73;;;18.80;99.90;;;;;;6219518;23;20020;-87
2023/08/12 05:41:29;;;;;;;1.90;0.70;;;18.90;99.90;;;;;;6244955;23;20079;-87
2023/08/12 05:43:54;;;;;;;0.98;0.55;;;19.00;99.90;;;;;;6218513;23;20019;-86
2023/08/12 05:46:20;;;;;;;0.80;0.50;;;19.10;99.90;;;;;;6218694;23;20024;-87
2023/08/12 05:48:46;;;;;;;1.52;1.13;;;19.20;99.90;;;;;;6193734;23;20013;-87
2023/08/12 05:51:11;;;;;;;0.93;0.60;;;19.30;99.90;;;;;;6220074;23;20062;-86
2023/08/12 05:53:38;;;;;;;2.33;0.68;;;19.30;99.90;;;;;;6220453;23;20028;-86
2023/08/12 05:56:03;;;;;;;2.45;0.90;;;19.40;99.90;;;;;;6220062;23;20085;-85
2023/08/12 05:58:29;;;;;;;1.13;0.70;;;19.40;99.90;;;;;;6247439;23;20047;-87
2023/08/12 06:00:55;;;;;;;1.48;0.70;;;19.50;99.90;;;;;;6247932;23;20013;-87
2023/08/12 06:03:21;;;;;;;1.88;0.60;;;19.50;99.90;;;;;;6248102;23;20070;-89
2023/08/12 06:05:47;;;;;;;1.00;0.70;;;19.60;99.90;;;;;;6220305;23;20437;-86
2023/08/12 06:08:13;;;;;;;1.35;0.90;;;19.70;99.90;;;;;;6246301;23;20020;-87
2023/08/12 06:10:40;;;;;;;2.35;0.90;;;19.70;99.90;;;;;;6194939;23;20020;-86
2023/08/12 06:13:06;;;;;;;1.63;0.77;;;19.80;99.90;;;;;;6247381;23;20023;-87
2023/08/12 06:15:33;;;;;;;1.73;0.75;;;19.90;99.90;;;;;;6247598;23;20067;-88
2023/08/12 06:17:59;;;;;;;2.65;0.73;;;20.00;99.90;;;;;;6219700;23;20027;-87
2023/08/12 06:20:25;;;;;;;1.45;0.80;;;20.00;99.90;;;;;;6247281;23;20020;-86
2023/08/12 06:22:52;;;;;;;2.47;0.88;;;20.10;99.90;;;;;;6220070;23;20443;-88
2023/08/12 06:25:18;;;;;;;2.55;1.00;;;20.20;99.90;;;;;;6220287;23;20020;-86
2023/08/12 06:27:45;;;;;;;2.63;1.00;;;20.30;99.90;;;;;;6195040;23;20467;-86
2023/08/12 06:30:12;;;;;;;1.90;1.00;;;20.30;99.90;;;;;;6220442;23;20508;-86
2023/08/12 06:32:38;;;;;;;1.42;0.82;;;20.40;99.90;;;;;;6219543;23;20458;-87
2023/08/12 06:35:04;;;;;;;1.40;0.90;;;20.40;99.90;;;;;;6247134;23;20046;-86
2023/08/12 06:37:30;;;;;;;2.47;0.98;;;20.40;99.90;;;;;;6220022;23;20016;-86
2023/08/12 06:39:56;;;;;;;1.48;0.80;;;20.50;99.90;;;;;;6246599;23;20016;-87
2023/08/12 06:42:22;;;;;;;275.65;256.20;;;20.50;99.90;;;;;;6220131;23;20016;-86
2023/08/12 06:44:58;;;;;;;857.45;777.80;;;20.50;99.90;;;;;;6194883;23;20443;-87
2023/08/12 06:47:23;;;;;;;647.75;583.17;;;20.50;99.90;;;;;;6219494;23;20090;-87
2023/08/12 06:49:49;;;;;;;3.95;1.20;;;20.50;99.90;;;;;;6194640;23;20031;-86
2023/08/12 06:52:16;;;;;;;2.85;1.10;;;20.50;99.90;;;;;;6219980;23;20027;-86
2023/08/12 06:54:41;;;;;;;2.13;1.20;;;20.60;99.90;;;;;;6219522;23;20016;-86
2023/08/12 06:57:07;;;;;;;2.45;1.00;;;20.60;99.90;;;;;;6219507;23;20119;-87
2023/08/12 06:59:33;;;;;;;1.95;1.20;;;20.60;99.90;;;;;;6219510;23;20024;-87
2023/08/12 07:01:59;;;;;;;2.65;1.25;;;20.70;99.90;;;;;;6194135;23;20386;-87
2023/08/12 07:04:25;;;;;;;4.18;1.55;;;20.70;99.90;;;;;;6219788;23;20099;-88
2023/08/12 07:06:55;;;;;;;3.75;1.30;;;20.70;99.90;;;;;;6219789;23;20054;-87
2023/08/12 07:09:24;;;;;;;2.78;1.30;;;20.70;99.90;;;;;;6219427;23;20020;-90
2023/08/12 07:11:50;;;;;;;2.20;1.48;;;20.70;99.90;;;;;;6220082;23;20016;-88
2023/08/12 07:14:15;;;;;;;4.55;1.17;;;20.70;99.90;;;;;;6246384;23;20012;-88
2023/08/12 07:16:41;;;;;;;4.57;1.20;;;20.70;99.90;;;;;;6246373;23;20450;-87
2023/08/12 07:19:07;;;;;;;3.40;1.42;;;20.60;99.90;;;;;;6194420;23;20020;-88
2023/08/12 07:21:32;;;;;;;3.38;1.38;;;20.60;99.90;;;;;;6194496;23;20138;-91
2023/08/12 07:23:58;;;;;;;2.65;0.98;;;20.60;99.90;;;;;;6246938;23;20233;-88
2023/08/12 07:26:24;;;;;;;3.25;1.65;;;20.70;99.90;;;;;;6218902;23;20018;-87
2023/08/12 07:28:50;;;;;;;3.78;1.50;;;20.70;99.90;;;;;;6219064;23;20017;-87
2023/08/12 07:31:15;;;;;;;2.63;1.00;;;20.60;99.90;;;;;;6219674;23;20017;-87
2023/08/12 07:33:41;;;;;;;2.15;0.90;;;20.60;99.90;;;;;;6218845;23;20020;-88
2023/08/12 07:36:07;;;;;;;2.75;1.67;;;20.60;99.90;;;;;;6246326;23;20316;-87
2023/08/12 07:38:33;;;;;;;2.35;1.20;;;20.70;99.90;;;;;;6219024;23;20447;-87
2023/08/12 07:40:58;;;;;;;3.53;1.23;;;20.70;99.90;;;;;;6219969;23;20031;-88
2023/08/12 07:43:24;;;;;;;2.58;1.25;;;20.80;99.90;;;;;;6220022;23;20103;-88
2023/08/12 07:45:53;;;;;;;2.38;1.00;;;20.90;99.90;;;;;;6246035;23;20091;-87
2023/08/12 07:48:20;;;;;;;2.67;1.40;;;20.90;99.90;;;;;;6219054;23;20066;-87
2023/08/12 07:50:49;;;;;;;4.57;1.55;;;20.90;99.90;;;;;;6246020;23;20016;-91
2023/08/12 07:53:15;;;;;;;7.30;1.40;;;21.00;99.90;;;;;;6219281;23;20073;-87
2023/08/12 07:55:42;;;;;;;3.47;1.23;;;21.00;99.90;;;;;;6218778;23;20031;-90
2023/08/12 07:58:08;;;;;;;3.00;1.38;;;21.00;99.90;;;;;;6246111;23;20016;-87
2023/08/12 08:00:36;;;;;;;3.88;1.25;;;21.00;99.90;;;;;;6219507;23;20012;-89
2023/08/12 08:03:21;;;;;;;2.20;1.45;;;21.00;99.90;;;;;;6218890;23;20044;-91
2023/08/12 08:05:49;;;;;;;2.20;1.10;;;21.00;99.90;;;;;;6219758;23;20278;-90
2023/08/12 08:08:19;;;;;;;63.95;59.67;;;21.00;99.90;;;;;;6194103;23;20027;-89
2023/08/12 08:10:51;;;;;;;559.33;512.10;;;21.10;99.90;;;;;;6221587;23;20338;-85
2023/08/12 08:13:17;;;;;;;643.80;574.33;;;21.20;99.90;;;;;;6245937;23;20016;-88
2023/08/12 08:15:42;;;;;;;937.38;788.28;;;21.20;99.90;;;;;;6245017;23;20016;-88
2023/08/12 08:18:08;;;;;;;719.42;669.80;;;21.20;99.90;;;;;;6218117;23;20020;-86
2023/08/12 08:20:35;;;;;;;737.42;574.55;;;21.20;99.90;;;;;;6218709;23;20115;-86
2023/08/12 08:23:01;;;;;;;903.95;813.25;;;21.20;99.90;;;;;;6218703;23;20469;-85
2023/08/12 08:25:26;;;;;;;591.42;532.38;;;21.10;99.90;;;;;;6218549;23;20016;-86
2023/08/12 08:27:52;;;;;;;581.50;540.17;;;21.10;99.90;;;;;;6218082;23;20019;-85
2023/08/12 08:30:18;;;;;;;387.08;356.00;;;21.10;99.90;;;;;;6219002;23;20012;-86
2023/08/12 08:32:46;;;;;;;380.92;351.85;;;21.10;99.90;;;;;;6245783;23;20107;-85
2023/08/12 08:35:12;;;;;;;389.80;355.73;;;21.10;99.90;;;;;;6193631;23;20496;-86
2023/08/12 08:37:38;;;;;;;812.65;742.08;;;21.10;99.90;;;;;;6218192;23;20517;-85
2023/08/12 08:40:04;;;;;;;516.30;472.13;;;21.10;99.90;;;;;;6244918;23;20048;-86
2023/08/12 08:42:31;;;;;;;443.52;355.63;;;21.20;99.90;;;;;;6219058;23;20023;-86
2023/08/12 08:45:01;;;;;;;844.88;759.58;;;21.20;99.90;;;;;;6218505;23;20012;-87
2023/08/12 08:47:27;;;;;;;1068.03;798.38;;;21.20;99.90;;;;;;6218334;23;20012;-85
2023/08/12 08:49:58;;;;;;;1030.20;789.35;;;21.20;99.90;;;;;;6218479;23;20023;-85
2023/08/12 08:52:24;;;;;;;899.20;575.38;;;21.20;99.90;;;;;;6218362;23;20508;-87
2023/08/12 08:54:50;;;;;;;1017.75;797.22;;;21.20;99.90;;;;;;6245449;23;20016;-87
2023/08/12 08:57:17;;;;;;;547.05;500.45;;;21.20;99.90;;;;;;6217960;23;20016;-86
2023/08/12 08:59:42;;;;;;;853.88;567.08;;;21.20;99.90;;;;;;6193061;23;20020;-86
2023/08/12 09:02:17;;;;;;;1101.00;796.38;;;21.20;99.90;;;;;;6244859;23;20020;-88
2023/08/12 09:04:45;;;;;;;689.33;523.25;;;21.20;99.90;;;;;;6245660;23;20153;-84
2023/08/12 09:07:11;;;;;;;1093.68;794.47;;;21.20;99.90;;;;;;6218267;23;20415;-85
2023/08/12 09:09:39;;;;;;;1100.32;811.72;;;21.10;99.90;;;;;;6218095;23;20020;-86
2023/08/12 09:12:06;;;;;;;766.05;556.53;;;21.10;99.90;;;;;;6218153;23;20474;-85
2023/08/12 09:14:33;;;;;;;1022.65;811.60;;;21.10;99.90;;;;;;6218171;23;20307;-87
2023/08/12 09:16:59;;;;;;;577.70;524.80;;;21.10;99.90;;;;;;6245569;23;20106;-88
2023/08/12 09:19:25;;;;;;;869.35;798.33;;;21.10;99.90;;;;;;6218603;23;20028;-89
2023/08/12 09:21:57;;;;;;;491.15;461.33;;;21.10;99.90;;;;;;6219148;23;20024;-90
2023/08/12 09:24:29;;;;;;;752.17;702.25;;;21.00;99.90;;;;;;6244853;23;20016;-90
2023/08/12 09:26:57;;;;;;;631.10;587.38;;;21.00;99.90;;;;;;6218160;23;20103;-89
2023/08/12 09:29:36;;;;;;;276.27;261.30;;;21.00;99.90;;;;;;6217796;23;20016;-91
2023/08/12 09:32:19;;;;;;;213.10;195.38;;;21.00;99.90;;;;;;6219183;23;20443;-88
2023/08/12 09:34:51;;;;;;;53.38;49.88;;;20.90;99.90;;;;;;6218558;23;20088;-88
2023/08/12 09:37:21;;;;;;;97.38;89.32;;;20.90;99.90;;;;;;6218850;23;20043;-87
2023/08/12 09:39:48;;;;;;;94.00;86.38;;;20.90;99.90;;;;;;6218815;23;20342;-87
2023/08/12 09:42:15;;;;;;;11.10;10.20;;;20.90;99.90;;;;;;6218606;23;20443;-86
2023/08/12 09:44:42;;;;;;;62.15;57.05;;;20.90;99.90;;;;;;6218318;23;20012;-85
2023/08/12 09:47:08;;;;;;;66.03;60.88;;;20.90;99.90;;;;;;6218420;23;20023;-85
2023/08/12 09:49:35;;;;;;;9.30;8.38;;;20.90;99.90;;;;;;6245563;23;20024;-87
2023/08/12 09:52:02;;;;;;;55.70;51.50;;;21.00;99.90;;;;;;6218762;23;20342;-85
2023/08/12 09:54:28;;;;;;;57.13;52.78;;;20.90;99.90;;;;;;6218358;23;20016;-85
2023/08/12 09:56:59;;;;;;;50.92;47.13;;;20.90;99.90;;;;;;6218131;23;20027;-86
2023/08/12 09:59:30;;;;;;;30.30;28.15;;;20.90;99.90;;;;;;6218746;23;20026;-87
2023/08/12 10:01:57;;;;;;;43.15;40.10;;;20.90;99.90;;;;;;6218685;23;20056;-90
2023/08/12 10:04:26;;;;;;;124.85;114.47;;;20.90;99.90;;;;;;6217948;23;20477;-87
2023/08/12 10:06:53;;;;;;;17.25;15.77;;;21.00;99.90;;;;;;6245795;23;20012;-86
2023/08/12 10:09:20;;;;;;;20.05;18.25;;;21.00;99.90;;;;;;6245584;23;20020;-87
2023/08/12 10:11:46;;;;;;;113.43;104.05;;;21.00;99.90;;;;;;6247029;23;20024;-88
2023/08/12 10:14:13;;;;;;;28.77;26.73;;;21.00;99.90;;;;;;6219437;23;20020;-87
2023/08/12 10:16:41;;;;;;;119.35;109.38;;;21.10;99.90;;;;;;6245021;23;20350;-89
2023/08/12 10:19:11;;;;;;;108.57;99.47;;;21.10;99.90;;;;;;6193035;23;20017;-86
2023/08/12 10:21:38;;;;;;;60.67;56.42;;;21.10;99.90;;;;;;6245154;23;20066;-86
2023/08/12 10:24:05;;;;;;;271.08;249.13;;;21.00;99.90;;;;;;6217719;23;20078;-87
2023/08/12 10:26:32;;;;;;;242.90;229.13;;;21.00;99.90;;;;;;6245220;23;20071;-86
2023/08/12 10:28:59;;;;;;;326.30;308.02;;;21.00;99.90;;;;;;6246056;23;20047;-86
2023/08/12 10:31:28;;;;;;;482.33;445.95;;;21.00;99.90;;;;;;6192990;23;20013;-88
2023/08/12 10:33:53;;;;;;;245.32;230.88;;;21.00;99.90;;;;;;6218397;23;20334;-87
2023/08/12 10:36:21;;;;;;;564.63;523.83;;;21.00;99.90;;;;;;6245117;23;20046;-87
2023/08/12 10:38:47;;;;;;;687.55;639.03;;;20.90;99.90;;;;;;6246544;23;20381;-86
2023/08/12 10:41:23;;;;;;;642.42;596.33;;;21.00;99.90;;;;;;6220604;23;20059;-86
2023/08/12 10:44:03;;;;;;;227.63;214.00;;;20.90;99.90;;;;;;6221300;23;20051;-88
2023/08/12 10:46:32;;;;;;;389.30;359.48;;;21.00;99.90;;;;;;6221728;23;20024;-87
2023/08/12 10:49:04;;;;;;;413.83;382.15;;;21.10;99.90;;;;;;6195788;23;20073;-87
2023/08/12 10:51:40;;;;;;;259.17;243.80;;;21.20;99.90;;;;;;6247024;23;20452;-90
2023/08/12 10:54:30;;;;;;;272.40;256.48;;;21.50;99.90;;;;;;6246277;23;20035;-85
2023/08/12 10:57:02;;;;;;;438.75;405.95;;;21.80;99.90;;;;;;6246448;23;20020;-86
2023/08/12 10:59:47;;;;;;;355.02;327.38;;;21.90;99.90;;;;;;6219823;23;20021;-84
2023/08/12 11:02:19;;;;;;;104.50;97.97;;;22.00;99.90;;;;;;6219749;23;20024;-86
2023/08/12 11:04:55;;;;;;;163.80;153.57;;;22.10;99.90;;;;;;6194291;23;20335;-83
2023/08/12 11:07:42;;;;;;;271.70;249.65;;;22.10;99.90;;;;;;6246249;23;20508;-82
2023/08/12 11:10:21;;;;;;;164.95;154.82;;;22.00;99.90;;;;;;6245907;23;20391;-83
2023/08/12 11:12:55;;;;;;;409.33;377.55;;;22.00;99.90;;;;;;6246561;23;20078;-86
2023/08/12 11:15:37;;;;;;;242.38;228.30;;;21.90;99.90;;;;;;6194331;23;20012;-84
2023/08/12 11:18:08;;;;;;;228.50;214.88;;;21.80;99.90;;;;;;6219499;23;20016;-86
2023/08/12 11:20:35;;;;;;;430.33;397.35;;;21.70;99.90;;;;;;6246982;23;20012;-88
2023/08/12 11:23:02;;;;;;;533.97;495.08;;;21.70;99.90;;;;;;6195195;23;20016;-85
2023/08/12 11:25:29;;;;;;;391.55;363.05;;;21.70;99.90;;;;;;6245974;23;20023;-83
2023/08/12 11:27:56;;;;;;;688.30;632.88;;;21.70;99.90;;;;;;6246640;23;20038;-84
2023/08/12 11:30:22;;;;;;;658.20;610.90;;;21.60;99.90;;;;;;6217293;23;20090;-88
2023/08/12 11:32:55;;;;;;;376.80;354.75;;;21.50;99.90;;;;;;6218799;23;20078;-88
2023/08/12 11:35:22;;;;;;;616.17;571.72;;;21.60;99.90;;;;;;6219806;23;20012;-85
2023/08/12 11:37:55;;;;;;;329.58;310.10;;;21.60;99.90;;;;;;6246203;23;20016;-83
2023/08/12 11:40:22;;;;;;;582.10;540.15;;;21.60;99.90;;;;;;6219605;23;20166;-87
2023/08/12 11:42:49;;;;;;;308.33;290.85;;;21.60;99.90;;;;;;6194348;23;20516;-83
2023/08/12 11:45:21;;;;;;;331.02;312.15;;;21.80;99.90;;;;;;6246198;23;20012;-87
2023/08/12 11:47:52;;;;;;;579.85;538.22;;;21.90;99.90;;;;;;6219779;23;20381;-88
2023/08/12 11:50:25;;;;;;;567.60;526.03;;;21.90;99.90;;;;;;6219764;23;20052;-86
2023/08/12 11:52:52;;;;;;;550.90;510.40;;;21.90;99.90;;;;;;6219711;23;20016;-90
2023/08/12 11:55:19;;;;;;;611.05;566.95;;;21.90;99.90;;;;;;6218944;23;20020;-88
2023/08/12 11:57:45;;;;;;;437.23;405.17;;;21.90;99.90;;;;;;6218865;23;20024;-88
2023/08/12 12:00:18;;;;;;;421.02;390.48;;;21.80;99.90;;;;;;6194222;23;20020;-88
2023/08/12 12:02:50;;;;;;;362.75;344.23;;;21.70;99.90;;;;;;6219269;23;20020;-87
2023/08/12 12:05:17;;;;;;;432.15;409.42;;;21.60;99.90;;;;;;6246101;23;20038;-89
2023/08/12 12:07:43;;;;;;;521.53;488.20;;;21.60;99.90;;;;;;6219226;23;20382;-85
2023/08/12 12:10:38;;;;;;;850.20;791.42;;;21.40;99.90;;;;;;6246120;23;20059;-88
2023/08/12 12:13:05;;;;;;;646.92;603.08;;;21.20;99.90;;;;;;6213469;23;20051;-86
2023/08/12 12:15:31;;;;;;;575.80;535.00;;;20.80;99.90;;;;;;6218982;23;20020;-86
2023/08/12 12:17:58;;;;;;;245.85;231.93;;;20.60;99.90;;;;;;6218684;23;20059;-85
2023/08/12 12:20:25;;;;;;;348.65;317.65;;;20.50;99.90;;;;;;6193975;23;20036;-86
2023/08/12 12:22:51;;;;;;;360.20;335.67;;;20.20;99.90;;;;;;6218966;23;20022;-86
2023/08/12 12:25:20;;;;;;;568.00;517.63;;;20.20;99.90;;;;;;6218860;23;20051;-86
2023/08/12 12:27:46;;;;;;;459.30;427.23;;;20.10;99.90;;;;;;6245549;23;20512;-86
2023/08/12 12:30:14;;;;;;;725.67;667.22;;;20.10;99.90;;;;;;6194401;23;20442;-86
2023/08/12 12:32:40;;;;;;;765.30;707.70;;;20.00;99.90;;;;;;6245561;23;20446;-86
2023/08/12 12:35:07;;;;;;;766.97;708.13;;;20.00;99.90;;;;;;6218800;23;20069;-85